Time;durP1;ratioP1;P1;durP2;ratioP2;P2;SDS_P1;SDS_P2;PMS_P1;PMS_P2;Temp;Humidity;BMP_temperature;BMP_pressure;BME280_temperature;BME280_humidity;BME280_pressure;Samples;Min_cycle;Max_cycle;Signal;HPM_P1;HPM_P2
2023/04/01 00:01:33;;;;;;;13.77;7.80;;;10.20;99.90;;;;;;5093621;28;20036;-47
2023/04/01 00:04:01;;;;;;;12.18;7.65;;;10.40;99.90;;;;;;5093800;28;20158;-46
2023/04/01 00:06:27;;;;;;;11.77;7.32;;;10.40;99.90;;;;;;5093308;28;20075;-46
2023/04/01 00:08:53;;;;;;;12.70;7.55;;;10.70;99.90;;;;;;5093654;28;20071;-47
2023/04/01 00:11:19;;;;;;;12.02;7.65;;;10.00;99.90;;;;;;5093306;28;20098;-50
2023/04/01 00:13:45;;;;;;;10.57;7.13;;;10.00;99.90;;;;;;5093302;28;20043;-46
2023/04/01 00:16:12;;;;;;;14.00;7.68;;;10.60;99.90;;;;;;5093484;28;20051;-46
2023/04/01 00:18:38;;;;;;;12.57;7.72;;;10.50;99.90;;;;;;5092696;28;20129;-46
2023/04/01 00:21:03;;;;;;;12.48;8.18;;;10.00;99.90;;;;;;5093222;28;20035;-45
2023/04/01 00:23:29;;;;;;;15.05;8.32;;;10.30;99.90;;;;;;5093194;28;20365;-45
2023/04/01 00:25:55;;;;;;;12.73;7.88;;;10.70;99.90;;;;;;5092045;28;20066;-48
2023/04/01 00:28:21;;;;;;;13.77;8.00;;;10.60;99.90;;;;;;5093003;28;20134;-47
2023/04/01 00:30:47;;;;;;;12.20;7.88;;;10.70;99.90;;;;;;5091775;28;20046;-48
2023/04/01 00:33:13;;;;;;;10.35;7.40;;;10.60;99.90;;;;;;5091888;28;20039;-49
2023/04/01 00:35:39;;;;;;;11.98;7.90;;;10.20;99.90;;;;;;5092874;28;20400;-47
2023/04/01 00:38:05;;;;;;;12.02;7.53;;;10.10;99.90;;;;;;5092837;28;20032;-49
2023/04/01 00:40:41;;;;;;;12.27;7.50;;;10.00;99.90;;;;;;5092502;28;20404;-46
2023/04/01 00:43:19;;;;;;;11.27;7.72;;;10.60;99.90;;;;;;5092562;28;20071;-50
2023/04/01 00:45:46;;;;;;;12.55;8.50;;;10.50;99.90;;;;;;5092978;28;20040;-47
2023/04/01 00:48:15;;;;;;;11.75;7.78;;;10.20;99.90;;;;;;5092694;28;20085;-50
2023/04/01 00:50:44;;;;;;;14.90;9.45;;;10.30;99.90;;;;;;5092592;28;20043;-47
2023/04/01 00:53:11;;;;;;;11.85;8.30;;;10.00;99.90;;;;;;5092661;28;20077;-49
2023/04/01 00:55:41;;;;;;;12.70;8.35;;;10.20;99.90;;;;;;5092513;28;20055;-46
2023/04/01 00:58:13;;;;;;;12.63;8.40;;;10.70;99.90;;;;;;5091228;28;20264;-46
2023/04/01 01:00:38;;;;;;;;;;;10.60;99.90;;;;;;5075078;28;20545;-50
2023/04/01 01:03:04;;;;;;;11.80;8.00;;;10.60;99.90;;;;;;5092376;28;20014;-50
2023/04/01 01:05:53;;;;;;;11.43;8.20;;;10.00;99.90;;;;;;5092437;28;20127;-47
2023/04/01 01:08:40;;;;;;;11.43;7.78;;;9.90;99.90;;;;;;5083165;28;20083;-48
2023/04/01 01:11:11;;;;;;;11.57;8.27;;;10.60;99.90;;;;;;5092419;28;20036;-46
2023/04/01 01:13:48;;;;;;;12.82;8.00;;;10.60;99.90;;;;;;5092425;28;20047;-47
2023/04/01 01:16:18;;;;;;;12.05;7.88;;;10.60;99.90;;;;;;5092301;28;20047;-46
2023/04/01 01:19:18;;;;;;;13.02;8.18;;;10.70;99.90;;;;;;5090832;28;20072;-48
2023/04/01 01:22:36;;;;;;;10.95;7.53;;;10.60;99.90;;;;;;5092414;28;20107;-47
2023/04/01 01:25:29;;;;;;;12.52;7.57;;;10.20;99.90;;;;;;5092635;28;20056;-46
2023/04/01 01:28:42;;;;;;;10.48;7.70;;;10.20;99.90;;;;;;5091904;28;20055;-46
2023/04/01 01:31:11;;;;;;;;;;;10.70;99.90;;;;;;5091375;28;20036;-49
2023/04/01 01:33:50;;;;;;;12.05;7.95;;;10.10;99.90;;;;;;5090873;28;19919;-46
2023/04/01 01:36:18;;;;;;;12.23;8.35;;;10.60;99.90;;;;;;5091617;28;20040;-46
2023/04/01 01:38:46;;;;;;;13.45;8.48;;;10.00;99.90;;;;;;5092093;28;20047;-46
2023/04/01 01:41:13;;;;;;;12.05;7.75;;;10.70;99.90;;;;;;5091642;28;20063;-46
2023/04/01 01:43:41;;;;;;;11.82;8.07;;;10.20;99.90;;;;;;5091781;28;20036;-46
2023/04/01 01:46:13;;;;;;;12.25;7.57;;;10.70;99.90;;;;;;5090768;28;20044;-46
2023/04/01 01:48:41;;;;;;;11.75;8.40;;;10.70;99.90;;;;;;5091705;28;20040;-49
2023/04/01 01:51:08;;;;;;;12.57;8.35;;;10.10;99.90;;;;;;5090761;28;20122;-48
2023/04/01 01:53:34;;;;;;;13.02;8.63;;;10.20;99.90;;;;;;5090653;28;20454;-50
2023/04/01 01:56:00;;;;;;;12.70;8.15;;;10.80;99.90;;;;;;5091685;28;20123;-47
2023/04/01 01:58:40;;;;;;;12.52;8.18;;;10.60;99.90;;;;;;5091999;28;20453;-49
2023/04/01 02:01:10;;;;;;;13.45;8.88;;;10.70;99.90;;;;;;5091761;28;20075;-47
2023/04/01 02:03:38;;;;;;;13.57;9.45;;;10.00;99.90;;;;;;5091724;28;20377;-46
2023/04/01 02:06:08;;;;;;;13.32;8.85;;;10.50;99.90;;;;;;5091860;28;20123;-46
2023/04/01 02:08:51;;;;;;;12.73;8.30;;;10.00;99.90;;;;;;5092003;28;20040;-48
2023/04/01 02:11:21;;;;;;;13.95;8.85;;;10.00;99.90;;;;;;5091871;28;20071;-47
2023/04/01 02:14:10;;;;;;;13.70;9.05;;;10.40;99.90;;;;;;5091638;28;20567;-46
2023/04/01 02:16:49;;;;;;;12.57;8.70;;;10.40;99.90;;;;;;5091628;28;20032;-47
2023/04/01 02:19:22;;;;;;;14.18;9.02;;;10.60;99.90;;;;;;5091851;28;20072;-46
2023/04/01 02:21:51;;;;;;;13.23;8.40;;;10.60;99.90;;;;;;5091566;28;20117;-45
2023/04/01 02:24:21;;;;;;;14.68;8.98;;;10.00;99.90;;;;;;5090892;28;20077;-47
2023/04/01 02:26:47;;;;;;;13.65;9.18;;;9.90;99.90;;;;;;5091530;28;20039;-47
2023/04/01 02:29:13;;;;;;;12.88;9.27;;;9.90;99.90;;;;;;5091201;28;20047;-47
2023/04/01 02:31:40;;;;;;;12.98;8.75;;;10.50;99.90;;;;;;5091660;28;20036;-45
2023/04/01 02:34:06;;;;;;;12.48;8.60;;;10.00;99.90;;;;;;5091017;28;20040;-46
2023/04/01 02:36:32;;;;;;;15.25;9.88;;;9.90;99.90;;;;;;5090221;28;20047;-47
2023/04/01 02:39:04;;;;;;;14.23;9.85;;;10.20;99.90;;;;;;5090240;28;20426;-45
2023/04/01 02:41:30;;;;;;;13.18;9.60;;;9.90;99.90;;;;;;5092204;28;20123;-46
2023/04/01 02:43:58;;;;;;;14.55;9.63;;;10.60;99.90;;;;;;5094887;28;20059;-48
2023/04/01 02:46:24;;;;;;;14.07;9.52;;;10.60;99.90;;;;;;5095059;28;20043;-45
2023/04/01 02:48:50;;;;;;;13.95;9.40;;;10.50;99.90;;;;;;5093737;28;20051;-47
2023/04/01 02:51:16;;;;;;;14.60;9.75;;;10.40;99.90;;;;;;5094982;28;20048;-46
2023/04/01 02:53:41;;;;;;;13.25;9.40;;;9.90;99.90;;;;;;5094847;28;20085;-45
2023/04/01 02:56:07;;;;;;;14.85;9.77;;;10.60;99.90;;;;;;5094798;28;20503;-46
2023/04/01 02:58:33;;;;;;;15.63;10.35;;;10.00;99.90;;;;;;5095352;28;20043;-46
2023/04/01 03:00:58;;;;;;;14.68;10.35;;;9.90;99.90;;;;;;5093603;28;20039;-46
2023/04/01 03:03:24;;;;;;;15.98;10.25;;;9.90;99.90;;;;;;5093568;28;20061;-46
2023/04/01 03:05:50;;;;;;;16.02;10.23;;;9.90;99.90;;;;;;5094596;28;20050;-45
2023/04/01 03:08:15;;;;;;;14.07;9.50;;;9.90;99.90;;;;;;5093441;28;20048;-46
2023/04/01 03:10:41;;;;;;;15.88;10.73;;;10.20;99.90;;;;;;5094672;28;20437;-46
2023/04/01 03:13:07;;;;;;;13.98;9.52;;;10.00;99.90;;;;;;5094481;28;20048;-46
2023/04/01 03:15:32;;;;;;;14.90;9.90;;;9.80;99.90;;;;;;5094188;28;20067;-45
2023/04/01 03:17:58;;;;;;;15.43;9.90;;;10.40;99.90;;;;;;5094344;28;20071;-47
2023/04/01 03:20:24;;;;;;;15.43;11.15;;;10.20;99.90;;;;;;5094114;28;20039;-47
2023/04/01 03:22:49;;;;;;;15.63;10.30;;;10.50;99.90;;;;;;5094475;28;20036;-49
2023/04/01 03:25:15;;;;;;;17.30;9.60;;;10.50;99.90;;;;;;5094152;28;20063;-47
2023/04/01 03:27:41;;;;;;;16.10;10.85;;;10.50;99.90;;;;;;5094343;28;20051;-45
2023/04/01 03:30:07;;;;;;;17.70;10.88;;;10.50;99.90;;;;;;5094361;28;20058;-49
2023/04/01 03:32:33;;;;;;;15.18;10.90;;;10.50;99.90;;;;;;5094337;28;20127;-47
2023/04/01 03:34:59;;;;;;;17.83;11.52;;;10.30;99.90;;;;;;5094314;28;20039;-46
2023/04/01 03:37:25;;;;;;;17.27;11.85;;;10.20;99.90;;;;;;5092948;28;20097;-47
2023/04/01 03:39:51;;;;;;;16.98;11.13;;;10.30;99.90;;;;;;5093664;28;20079;-46
2023/04/01 03:42:16;;;;;;;17.90;11.70;;;10.20;99.90;;;;;;5093915;28;20464;-46
2023/04/01 03:44:42;;;;;;;18.52;12.27;;;10.10;99.90;;;;;;5092801;28;20047;-49
2023/04/01 03:47:09;;;;;;;18.55;12.23;;;9.90;99.90;;;;;;5092876;28;20123;-46
2023/04/01 03:49:35;;;;;;;19.17;12.00;;;9.80;99.90;;;;;;5093565;28;20428;-46
2023/04/01 03:52:00;;;;;;;18.13;12.82;;;10.40;99.90;;;;;;5093803;28;20040;-49
2023/04/01 03:54:26;;;;;;;19.25;12.10;;;9.80;99.90;;;;;;5092710;28;20062;-45
2023/04/01 03:56:52;;;;;;;17.60;11.63;;;10.10;99.90;;;;;;5093554;28;20481;-45
2023/04/01 03:59:17;;;;;;;19.45;12.50;;;9.90;99.90;;;;;;5093792;28;20075;-46
2023/04/01 04:01:43;;;;;;;18.60;12.55;;;10.50;99.90;;;;;;5093661;28;20039;-48
2023/04/01 04:04:12;;;;;;;18.83;12.07;;;9.70;99.90;;;;;;5093181;28;20120;-46
2023/04/01 04:06:38;;;;;;;18.55;12.68;;;9.80;99.90;;;;;;5093484;28;20411;-45
2023/04/01 04:09:04;;;;;;;18.65;12.43;;;9.80;99.90;;;;;;5092476;28;20047;-45
2023/04/01 04:11:32;;;;;;;17.55;12.70;;;10.10;99.90;;;;;;5092103;28;20488;-46
2023/04/01 04:13:58;;;;;;;18.33;12.75;;;9.80;99.90;;;;;;5093559;28;20050;-45
2023/04/01 04:16:24;;;;;;;19.38;12.57;;;9.70;99.90;;;;;;5075054;28;20476;-44
2023/04/01 04:18:50;;;;;;;18.27;12.82;;;10.30;99.90;;;;;;5091921;28;20036;-45
2023/04/01 04:21:16;;;;;;;19.23;12.77;;;10.00;99.90;;;;;;5093275;28;20119;-45
2023/04/01 04:23:42;;;;;;;20.15;13.23;;;10.40;99.90;;;;;;5091913;28;20167;-44
2023/04/01 04:26:12;;;;;;;18.65;12.20;;;9.70;99.90;;;;;;5091785;28;20050;-45
2023/04/01 04:28:38;;;;;;;21.83;13.23;;;10.40;99.90;;;;;;5093158;28;20069;-45
2023/04/01 04:31:05;;;;;;;21.70;14.60;;;9.80;99.90;;;;;;5092999;28;20031;-45
2023/04/01 04:33:31;;;;;;;23.63;15.70;;;10.40;99.90;;;;;;5091765;28;20044;-45
2023/04/01 04:35:57;;;;;;;24.95;14.75;;;9.80;99.90;;;;;;5092834;28;20364;-46
2023/04/01 04:38:24;;;;;;;22.45;14.80;;;9.70;99.90;;;;;;5092874;28;20117;-44
2023/04/01 04:40:49;;;;;;;21.83;15.00;;;9.80;99.90;;;;;;5092649;28;20048;-45
2023/04/01 04:43:17;;;;;;;22.35;14.13;;;10.40;99.90;;;;;;5091826;28;20393;-46
2023/04/01 04:45:42;;;;;;;23.00;15.00;;;10.40;99.90;;;;;;5092954;28;20399;-47
2023/04/01 04:48:18;;;;;;;22.95;15.43;;;10.40;99.90;;;;;;5091580;28;20123;-49
2023/04/01 04:50:44;;;;;;;28.05;16.77;;;9.80;99.90;;;;;;5091538;28;20122;-45
2023/04/01 04:53:11;;;;;;;24.17;14.45;;;10.40;99.90;;;;;;5074839;28;20048;-47
2023/04/01 04:55:37;;;;;;;27.08;15.75;;;10.50;99.90;;;;;;5070975;28;20045;-47
2023/04/01 04:58:03;;;;;;;23.08;14.88;;;9.70;99.90;;;;;;5070916;28;20040;-45
2023/04/01 05:00:28;;;;;;;22.95;14.50;;;10.10;99.90;;;;;;5071465;28;20075;-45
2023/04/01 05:02:54;;;;;;;19.95;14.35;;;10.50;99.90;;;;;;5080402;28;20493;-46
2023/04/01 05:05:20;;;;;;;25.20;15.35;;;10.20;99.90;;;;;;5079159;28;20033;-47
2023/04/01 05:07:46;;;;;;;23.35;14.70;;;10.20;99.90;;;;;;5079279;28;20399;-45
2023/04/01 05:10:11;;;;;;;24.02;15.50;;;10.00;99.90;;;;;;5081134;28;20399;-47
2023/04/01 05:12:38;;;;;;;24.42;14.57;;;9.70;99.90;;;;;;5079033;28;20177;-45
2023/04/01 05:15:08;;;;;;;22.65;15.10;;;10.00;99.90;;;;;;5079353;28;20044;-45
2023/04/01 05:17:34;;;;;;;23.25;15.43;;;9.80;99.90;;;;;;5081224;28;20028;-46
2023/04/01 05:20:00;;;;;;;25.52;17.17;;;10.30;99.90;;;;;;5079093;28;20603;-46
2023/04/01 05:22:27;;;;;;;26.77;19.27;;;10.00;99.90;;;;;;5080177;28;20123;-48
2023/04/01 05:24:52;;;;;;;22.02;15.60;;;9.80;99.90;;;;;;5079807;28;20111;-45
2023/04/01 05:27:18;;;;;;;24.38;17.90;;;10.00;99.90;;;;;;5079943;28;20177;-48
2023/04/01 05:29:44;;;;;;;24.98;17.70;;;10.00;99.90;;;;;;5081292;28;20514;-46
2023/04/01 05:32:09;;;;;;;26.33;16.35;;;9.80;99.90;;;;;;5079168;28;20481;-49
2023/04/01 05:34:35;;;;;;;22.90;15.80;;;10.50;99.90;;;;;;5080197;28;20036;-45
2023/04/01 05:37:01;;;;;;;22.58;16.55;;;10.50;99.90;;;;;;5080465;28;20043;-49
2023/04/01 05:39:27;;;;;;;24.33;15.63;;;9.70;99.90;;;;;;5077919;28;20147;-46
2023/04/01 05:41:52;;;;;;;24.55;16.38;;;10.50;99.90;;;;;;5080150;28;20445;-46
2023/04/01 05:44:18;;;;;;;24.67;17.00;;;10.40;99.90;;;;;;5080209;28;20059;-48
2023/04/01 05:46:44;;;;;;;24.83;15.52;;;10.50;99.90;;;;;;5078922;28;20056;-50
2023/04/01 05:49:09;;;;;;;26.33;16.88;;;10.10;99.90;;;;;;5052189;28;20119;-49
2023/04/01 05:51:35;;;;;;;22.63;15.75;;;10.20;99.90;;;;;;5080792;28;20651;-47
2023/04/01 05:54:01;;;;;;;26.30;16.05;;;10.10;99.90;;;;;;5076950;28;20032;-47
2023/04/01 05:56:26;;;;;;;25.15;15.60;;;10.00;99.90;;;;;;5075917;28;20154;-49
2023/04/01 05:58:54;;;;;;;26.88;17.33;;;9.90;99.90;;;;;;5078320;28;20048;-46
2023/04/01 06:01:20;;;;;;;25.83;17.17;;;10.50;99.90;;;;;;5079455;28;20747;-46
2023/04/01 06:03:46;;;;;;;24.02;15.20;;;9.90;99.90;;;;;;5078504;28;20079;-46
2023/04/01 06:06:15;;;;;;;22.80;14.50;;;10.30;99.90;;;;;;5080040;28;20079;-48
2023/04/01 06:08:41;;;;;;;23.65;15.50;;;10.50;99.90;;;;;;5080820;28;20420;-46
2023/04/01 06:11:06;;;;;;;22.10;14.95;;;9.90;99.90;;;;;;5078773;28;20059;-49
2023/04/01 06:13:58;;;;;;;25.85;15.52;;;9.90;99.90;;;;;;5079674;28;20093;-46
2023/04/01 06:16:49;;;;;;;26.30;16.33;;;10.60;99.90;;;;;;5080093;28;20044;-46
2023/04/01 06:19:56;;;;;;;25.80;17.02;;;10.40;99.90;;;;;;5083773;28;20045;-45
2023/04/01 06:22:27;;;;;;;25.25;16.17;;;10.00;99.90;;;;;;5075959;28;20047;-45
2023/04/01 06:24:53;;;;;;;24.70;15.35;;;10.50;99.90;;;;;;5080594;28;20488;-46
2023/04/01 06:27:47;;;;;;;23.50;15.88;;;10.40;99.90;;;;;;5081956;28;20129;-46
2023/04/01 06:30:47;;;;;;;21.55;14.05;;;10.00;99.90;;;;;;5081159;28;20114;-46
2023/04/01 06:33:28;;;;;;;23.52;16.05;;;10.30;99.90;;;;;;5072826;28;20036;-45
2023/04/01 06:36:18;;;;;;;25.52;16.73;;;10.10;99.90;;;;;;5073461;28;20130;-50
2023/04/01 06:39:01;;;;;;;23.48;15.75;;;10.10;99.90;;;;;;5073301;28;20040;-46
2023/04/01 06:42:03;;;;;;;23.15;15.15;;;10.30;99.90;;;;;;5072803;28;20816;-47
2023/04/01 06:45:00;;;;;;;26.10;17.27;;;10.40;99.90;;;;;;5073116;28;20044;-48
2023/04/01 06:48:05;;;;;;;23.55;15.23;;;10.80;99.90;;;;;;5073245;28;20068;-50
2023/04/01 06:50:54;;;;;;;23.73;15.52;;;11.10;99.90;;;;;;5080423;28;20438;-48
2023/04/01 06:53:47;;;;;;;22.98;15.77;;;10.50;99.90;;;;;;5093008;28;20063;-46
2023/04/01 06:56:18;;;;;;;22.75;15.18;;;10.90;99.90;;;;;;5091964;28;20085;-48
2023/04/01 06:58:52;;;;;;;23.40;14.93;;;11.00;99.90;;;;;;5092938;28;20451;-45
2023/04/01 07:01:23;;;;;;;23.55;15.77;;;10.40;99.90;;;;;;5093287;28;20101;-47
2023/04/01 07:04:12;;;;;;;21.70;14.73;;;10.60;99.90;;;;;;5093088;28;20100;-48
2023/04/01 07:06:47;;;;;;;24.63;15.80;;;10.80;99.90;;;;;;5083751;28;20396;-48
2023/04/01 07:09:24;;;;;;;21.60;14.75;;;11.20;99.90;;;;;;5092981;28;20048;-47
2023/04/01 07:11:53;;;;;;;24.13;14.60;;;11.10;99.90;;;;;;5092943;28;20502;-45
2023/04/01 07:14:25;;;;;;;22.33;15.60;;;10.70;99.90;;;;;;5093355;28;20450;-49
2023/04/01 07:17:04;;;;;;;;;;;11.20;99.90;;;;;;5094081;28;20164;-46
2023/04/01 07:19:59;;;;;;;24.42;16.77;;;11.20;99.90;;;;;;5093355;28;19923;-46
2023/04/01 07:22:36;;;;;;;23.42;15.60;;;11.20;99.90;;;;;;5094077;28;20040;-46
2023/04/01 07:25:11;;;;;;;26.23;17.80;;;10.90;99.90;;;;;;5094078;28;20661;-45
2023/04/01 07:27:37;;;;;;;26.52;17.23;;;10.80;99.90;;;;;;5092466;28;20083;-46
2023/04/01 07:30:13;;;;;;;25.63;17.20;;;11.20;99.90;;;;;;5094429;28;20067;-46
2023/04/01 07:32:47;;;;;;;23.83;16.42;;;11.30;99.90;;;;;;5094074;28;20082;-48
2023/04/01 07:35:21;;;;;;;26.67;17.35;;;11.20;99.90;;;;;;5093981;28;20044;-46
2023/04/01 07:38:06;;;;;;;23.35;16.70;;;10.90;99.90;;;;;;5085281;28;20040;-47
2023/04/01 07:40:51;;;;;;;24.15;17.02;;;10.90;99.90;;;;;;5073281;28;20052;-48
2023/04/01 07:43:20;;;;;;;23.25;16.52;;;11.00;99.90;;;;;;5073359;28;20047;-46
2023/04/01 07:46:10;;;;;;;25.05;16.05;;;11.20;99.90;;;;;;5074277;28;20504;-48
2023/04/01 07:48:44;;;;;;;28.33;17.17;;;11.40;99.90;;;;;;5093136;28;20042;-46
2023/04/01 07:51:54;;;;;;;23.83;16.02;;;11.40;99.90;;;;;;5092247;28;20064;-47
2023/04/01 07:54:28;;;;;;;22.88;15.13;;;10.90;99.90;;;;;;5044691;28;20087;-48
2023/04/01 07:57:17;;;;;;;22.80;15.75;;;10.90;99.90;;;;;;5093014;28;20378;-47
2023/04/01 07:59:50;;;;;;;22.17;15.10;;;11.40;99.90;;;;;;5092997;28;20028;-49
2023/04/01 08:02:34;;;;;;;20.05;14.23;;;11.50;99.90;;;;;;5092050;28;20043;-47
2023/04/01 08:05:13;;;;;;;19.85;13.10;;;11.20;99.90;;;;;;5092566;28;20055;-45
2023/04/01 08:08:00;;;;;;;19.13;13.10;;;11.40;99.90;;;;;;5091556;28;20397;-45
2023/04/01 08:10:47;;;;;;;18.95;13.07;;;11.10;99.90;;;;;;5091579;28;20052;-45
2023/04/01 08:13:24;;;;;;;20.40;13.70;;;11.10;99.90;;;;;;5092865;28;20044;-47
2023/04/01 08:16:13;;;;;;;19.33;12.77;;;11.20;99.90;;;;;;5093317;28;20122;-46
2023/04/01 08:18:54;;;;;;;18.17;12.05;;;11.70;99.90;;;;;;5093063;28;20452;-46
2023/04/01 08:21:23;;;;;;;17.20;12.10;;;11.70;99.90;;;;;;5078576;28;20507;-45
2023/04/01 08:23:51;;;;;;;18.08;12.02;;;11.60;99.90;;;;;;5078286;28;20540;-47
2023/04/01 08:26:40;;;;;;;18.40;12.75;;;11.30;99.90;;;;;;5093175;28;20048;-46
2023/04/01 08:29:27;;;;;;;16.70;10.20;;;11.40;99.90;;;;;;5092890;28;20432;-46
2023/04/01 08:32:05;;;;;;;17.40;11.63;;;11.40;99.90;;;;;;5092876;28;20051;-45
2023/04/01 08:34:37;;;;;;;18.38;11.65;;;11.40;99.90;;;;;;5092290;28;20503;-45
2023/04/01 08:37:17;;;;;;;16.95;11.07;;;11.90;99.90;;;;;;5089623;28;20127;-45
2023/04/01 08:40:35;;;;;;;16.25;11.55;;;11.70;99.90;;;;;;5082243;28;20625;-46
2023/04/01 08:43:22;;;;;;;12.38;7.30;;;11.70;99.90;;;;;;5064898;28;20138;-45
2023/04/01 08:46:17;;;;;;;10.88;5.95;;;11.40;99.90;;;;;;5072379;28;20404;-47
2023/04/01 08:49:07;;;;;;;8.48;5.03;;;11.20;99.90;;;;;;5080582;28;20046;-45
2023/04/01 08:51:42;;;;;;;8.77;5.82;;;11.30;99.90;;;;;;5092530;28;20395;-47
2023/04/01 08:54:29;;;;;;;9.25;5.30;;;11.00;99.90;;;;;;5092168;28;20036;-45
2023/04/01 08:57:12;;;;;;;9.43;6.15;;;11.10;99.90;;;;;;5074641;28;20044;-45
2023/04/01 08:59:56;;;;;;;9.10;5.38;;;11.10;99.90;;;;;;5077399;28;20124;-47
2023/04/01 09:02:40;;;;;;;9.43;5.65;;;11.10;99.90;;;;;;5072260;28;20047;-49
2023/04/01 09:05:37;;;;;;;9.63;5.30;;;11.50;99.90;;;;;;5074743;28;20383;-50
2023/04/01 09:08:11;;;;;;;8.98;5.35;;;11.10;99.90;;;;;;5044780;28;20063;-46
2023/04/01 09:11:04;;;;;;;9.65;4.72;;;11.10;99.90;;;;;;5082518;28;20547;-48
2023/04/01 09:13:45;;;;;;;8.98;4.78;;;11.30;99.90;;;;;;5073467;28;20036;-48
2023/04/01 09:16:19;;;;;;;9.07;5.68;;;11.30;99.90;;;;;;5085735;28;20036;-47
2023/04/01 09:19:07;;;;;;;9.07;5.63;;;11.10;99.90;;;;;;5070845;28;20295;-46
2023/04/01 09:22:05;;;;;;;8.48;4.97;;;10.90;99.90;;;;;;5079809;28;20088;-45
2023/04/01 09:24:53;;;;;;;8.27;4.70;;;10.80;99.90;;;;;;5055230;28;20147;-46
2023/04/01 09:27:28;;;;;;;8.48;4.80;;;10.90;99.90;;;;;;5076051;28;20047;-47
2023/04/01 09:30:31;;;;;;;7.78;4.80;;;10.70;99.90;;;;;;5077701;28;20032;-44
2023/04/01 09:33:03;;;;;;;7.97;4.03;;;10.80;99.90;;;;;;5080133;28;20485;-45
2023/04/01 09:36:02;;;;;;;8.63;3.85;;;11.00;99.90;;;;;;5078386;28;20078;-48
2023/04/01 09:38:48;;;;;;;7.22;3.58;;;10.50;99.90;;;;;;5079302;28;20140;-45
2023/04/01 09:41:35;;;;;;;6.10;3.25;;;10.50;99.90;;;;;;5069710;28;20121;-48
2023/04/01 09:44:04;;;;;;;8.73;3.80;;;10.80;99.90;;;;;;5085249;28;20052;-46
2023/04/01 09:46:44;;;;;;;7.15;3.20;;;11.00;99.90;;;;;;5089622;28;20048;-47
2023/04/01 09:49:21;;;;;;;6.35;2.80;;;10.70;99.90;;;;;;5087481;28;20040;-46
2023/04/01 09:52:07;;;;;;;6.57;3.22;;;10.80;99.90;;;;;;5089505;28;20101;-49
2023/04/01 09:55:05;;;;;;;6.43;3.03;;;11.10;99.90;;;;;;5089829;28;20492;-49
2023/04/01 09:57:40;;;;;;;8.40;3.33;;;11.20;99.90;;;;;;5084643;28;20485;-47
2023/04/01 10:00:40;;;;;;;8.00;3.50;;;11.10;99.90;;;;;;5079810;28;20040;-46
2023/04/01 10:03:05;;;;;;;7.30;2.85;;;11.20;99.90;;;;;;5082314;28;20481;-45
2023/04/01 10:05:55;;;;;;;6.07;2.80;;;11.20;99.90;;;;;;5086652;28;20044;-46
2023/04/01 10:08:51;;;;;;;6.63;2.70;;;10.90;99.90;;;;;;5094347;28;20101;-48
2023/04/01 10:11:53;;;;;;;7.80;2.80;;;11.10;99.90;;;;;;5073970;28;20044;-46
2023/04/01 10:14:52;;;;;;;6.70;2.90;;;11.10;99.90;;;;;;5074185;28;20116;-45
2023/04/01 10:17:42;;;;;;;7.10;2.90;;;10.40;99.90;;;;;;5073818;28;20044;-45
2023/04/01 10:20:39;;;;;;;7.10;3.33;;;10.70;99.90;;;;;;5076290;28;20037;-48
2023/04/01 10:23:22;;;;;;;11.38;4.50;;;10.80;99.90;;;;;;5078832;28;20051;-46
2023/04/01 10:26:15;;;;;;;8.07;3.22;;;10.60;99.90;;;;;;5085133;28;20037;-45
2023/04/01 10:28:40;;;;;;;5.65;2.72;;;10.60;99.90;;;;;;5084625;28;20398;-45
2023/04/01 10:31:34;;;;;;;5.95;2.38;;;10.40;99.90;;;;;;5091681;28;20040;-46
2023/04/01 10:34:24;;;;;;;7.38;2.90;;;10.20;99.90;;;;;;5083910;28;20036;-44
2023/04/01 10:37:13;;;;;;;7.93;2.80;;;10.50;99.90;;;;;;5083488;28;20040;-46
2023/04/01 10:39:50;;;;;;;6.88;2.53;;;10.80;99.90;;;;;;5082430;28;20062;-45
2023/04/01 10:42:19;;;;;;;5.60;2.60;;;10.90;99.90;;;;;;5082714;28;20045;-45
2023/04/01 10:45:03;;;;;;;5.57;1.85;;;10.80;99.90;;;;;;5082837;28;20758;-47
2023/04/01 10:47:50;;;;;;;6.90;2.10;;;10.60;99.90;;;;;;5081980;28;20108;-44
2023/04/01 10:50:32;;;;;;;5.68;2.00;;;10.70;99.90;;;;;;5083731;28;20085;-45
2023/04/01 10:53:12;;;;;;;5.22;1.88;;;10.40;99.90;;;;;;5086708;28;20035;-45
2023/04/01 10:55:59;;;;;;;5.45;2.20;;;10.40;99.90;;;;;;5078947;28;20117;-45
2023/04/01 10:58:49;;;;;;;4.20;1.70;;;10.70;99.90;;;;;;5090319;28;20101;-48
2023/04/01 11:01:22;;;;;;;6.05;2.40;;;10.70;99.90;;;;;;5089415;28;20043;-46
2023/04/01 11:04:06;;;;;;;4.90;2.20;;;10.30;99.90;;;;;;5083454;28;20111;-45
2023/04/01 11:06:46;;;;;;;8.93;2.47;;;10.20;99.90;;;;;;5091958;28;20036;-45
2023/04/01 11:09:34;;;;;;;5.97;2.00;;;10.30;99.90;;;;;;5086466;28;20127;-45
2023/04/01 11:12:02;;;;;;;5.05;2.13;;;10.40;99.90;;;;;;5082767;28;20396;-45
2023/04/01 11:14:53;;;;;;;7.10;1.95;;;10.40;99.90;;;;;;5082181;28;20032;-49
2023/04/01 11:18:01;;;;;;;5.78;2.05;;;10.40;99.90;;;;;;5077681;28;20048;-47
2023/04/01 11:21:02;;;;;;;5.20;2.00;;;10.10;99.90;;;;;;5088354;28;20373;-46
2023/04/01 11:24:14;;;;;;;4.55;1.90;;;10.40;99.90;;;;;;5088398;28;20040;-46
2023/04/01 11:27:07;;;;;;;5.20;2.22;;;10.10;99.90;;;;;;5080823;28;20048;-46
2023/04/01 11:30:05;;;;;;;;;;;10.50;99.90;;;;;;5084776;28;20044;-47
2023/04/01 11:32:49;;;;;;;5.13;1.85;;;10.10;99.90;;;;;;5050626;28;19962;-59
2023/04/01 11:35:36;;;;;;;6.68;2.20;;;10.60;99.90;;;;;;5082408;28;20066;-49
2023/04/01 11:38:22;;;;;;;5.07;2.00;;;10.60;99.90;;;;;;5083999;28;20043;-46
2023/04/01 11:41:06;;;;;;;5.90;2.30;;;10.60;99.90;;;;;;5084794;28;20040;-47
2023/04/01 11:43:56;;;;;;;6.00;2.22;;;10.30;99.90;;;;;;5085103;28;20053;-47
2023/04/01 11:46:36;;;;;;;7.20;2.33;;;10.20;99.90;;;;;;5081027;28;20045;-45
2023/04/01 11:49:05;;;;;;;6.78;2.17;;;10.50;99.90;;;;;;5082000;28;20036;-45
2023/04/01 11:51:39;;;;;;;6.35;2.10;;;10.70;99.90;;;;;;5087344;28;20488;-46
2023/04/01 11:54:13;;;;;;;5.53;2.08;;;10.60;99.90;;;;;;5088856;28;20036;-45
2023/04/01 11:56:59;;;;;;;5.43;2.17;;;10.50;99.90;;;;;;5085201;28;20051;-46
2023/04/01 11:59:56;;;;;;;6.25;2.35;;;10.70;99.90;;;;;;5075294;28;20120;-47
2023/04/01 12:03:00;;;;;;;6.22;2.53;;;10.40;99.90;;;;;;5088142;28;20432;-45
2023/04/01 12:05:48;;;;;;;5.03;1.85;;;10.50;99.90;;;;;;5088509;28;20531;-47
2023/04/01 12:08:56;;;;;;;3.97;1.70;;;10.60;99.90;;;;;;5086319;28;20059;-46
2023/04/01 12:11:39;;;;;;;3.88;1.70;;;10.20;99.90;;;;;;5091471;28;20404;-49
2023/04/01 12:14:37;;;;;;;4.22;1.73;;;10.40;99.90;;;;;;5071961;28;20044;-46
2023/04/01 12:17:22;;;;;;;4.38;1.75;;;10.60;99.90;;;;;;5074189;28;20504;-45
2023/04/01 12:20:11;;;;;;;5.07;1.77;;;10.30;99.90;;;;;;5083113;28;20039;-49
2023/04/01 12:22:43;;;;;;;4.22;1.90;;;10.80;99.90;;;;;;5072045;28;20396;-45
2023/04/01 12:25:38;;;;;;;4.47;2.00;;;10.50;99.90;;;;;;5076376;28;20038;-47
2023/04/01 12:28:41;;;;;;;5.63;1.95;;;10.50;99.90;;;;;;5070925;28;20072;-47
2023/04/01 12:31:42;;;;;;;5.32;2.28;;;10.60;99.90;;;;;;5088022;28;20066;-47
2023/04/01 12:34:39;;;;;;;4.50;2.00;;;10.80;99.90;;;;;;5080887;28;20523;-50
2023/04/01 12:37:38;;;;;;;5.68;2.00;;;10.80;99.90;;;;;;5072553;28;20425;-45
2023/04/01 12:40:28;;;;;;;4.70;1.80;;;10.70;99.90;;;;;;5085642;28;20033;-49
2023/04/01 12:43:13;;;;;;;4.90;1.90;;;10.90;99.90;;;;;;5080376;28;20060;-45
2023/04/01 12:45:59;;;;;;;3.67;1.70;;;10.90;99.90;;;;;;5088056;28;20349;-45
2023/04/01 12:48:34;;;;;;;3.75;1.52;;;10.90;99.90;;;;;;5087256;28;20036;-46
2023/04/01 12:51:27;;;;;;;3.53;1.25;;;10.80;99.90;;;;;;5075607;28;20046;-45
2023/04/01 12:54:16;;;;;;;4.03;1.80;;;10.70;99.90;;;;;;5073830;28;20036;-45
2023/04/01 12:56:48;;;;;;;4.63;1.88;;;10.70;99.90;;;;;;5071031;28;20388;-46
2023/04/01 12:59:27;;;;;;;4.43;1.80;;;10.90;99.90;;;;;;5071980;28;20394;-45
2023/04/01 13:02:14;;;;;;;4.25;1.60;;;10.90;99.90;;;;;;5080528;28;20044;-45
2023/04/01 13:05:15;;;;;;;8.70;2.00;;;10.80;99.90;;;;;;5089513;28;20048;-45
2023/04/01 13:07:58;;;;;;;3.97;1.63;;;10.50;99.90;;;;;;5089653;28;20044;-45
2023/04/01 13:10:29;;;;;;;6.22;1.88;;;10.80;99.90;;;;;;5078428;28;20427;-46
2023/04/01 13:13:26;;;;;;;5.28;1.80;;;10.50;99.90;;;;;;5070667;28;20037;-48
2023/04/01 13:16:09;;;;;;;3.97;1.90;;;10.70;99.90;;;;;;5070672;28;20048;-46
2023/04/01 13:18:55;;;;;;;5.05;1.90;;;10.70;99.90;;;;;;5080439;28;20168;-45
2023/04/01 13:21:33;;;;;;;4.82;1.92;;;10.60;99.90;;;;;;5089127;28;20041;-45
2023/04/01 13:24:26;;;;;;;4.38;2.00;;;10.40;99.90;;;;;;5079674;28;20432;-46
2023/04/01 13:26:54;;;;;;;5.88;1.70;;;10.50;99.90;;;;;;5078491;28;20544;-49
2023/04/01 13:29:43;;;;;;;5.65;1.83;;;10.60;99.90;;;;;;5077820;28;20044;-54